You are not logged in, Click here to log in
ICAO: VTBD Country: 泰國曼谷
Latitude: 13.9133 Longitude: 100.604
Total Arrivals: 7 Total Departures: 7
Latest Arrival: SL177 (VVTS-VTBD)CHU. CHUHAO Latest Departure: L7S66 (VTBD-VTSP)CHU. CHUHAO
Scenery:
METAR : VTBD 190800Z 33006KT 290V020 9999 SCT030 34/24 Q1003 NOSIG

廊曼國際機場DMK